sensor_id;sensor_type;location;lat;lon;timestamp;temperature;humidity
21199;DHT22;10757;51.038;3.712;2022-10-14T00:01:12;16.00;99.90
21199;DHT22;10757;51.038;3.712;2022-10-14T00:03:38;16.00;99.90
21199;DHT22;10757;51.038;3.712;2022-10-14T00:06:10;15.90;99.90
21199;DHT22;10757;51.038;3.712;2022-10-14T00:08:36;15.90;99.90
21199;DHT22;10757;51.038;3.712;2022-10-14T00:11:08;15.90;99.90
21199;DHT22;10757;51.038;3.712;2022-10-14T00:13:34;16.00;99.90
21199;DHT22;10757;51.038;3.712;2022-10-14T00:16:00;15.90;99.90
21199;DHT22;10757;51.038;3.712;2022-10-14T00:18:26;16.00;99.90
21199;DHT22;10757;51.038;3.712;2022-10-14T00:20:57;16.00;99.90
21199;DHT22;10757;51.038;3.712;2022-10-14T00:23:25;16.10;99.90
21199;DHT22;10757;51.038;3.712;2022-10-14T00:25:51;16.00;99.90
21199;DHT22;10757;51.038;3.712;2022-10-14T00:28:17;15.80;99.90
21199;DHT22;10757;51.038;3.712;2022-10-14T00:30:55;15.70;99.90
21199;DHT22;10757;51.038;3.712;2022-10-14T00:33:22;16.00;99.90
21199;DHT22;10757;51.038;3.712;2022-10-14T00:36:01;16.00;99.90
21199;DHT22;10757;51.038;3.712;2022-10-14T00:38:27;15.90;99.90
21199;DHT22;10757;51.038;3.712;2022-10-14T00:40:54;15.90;99.90
21199;DHT22;10757;51.038;3.712;2022-10-14T00:43:21;15.80;99.90
21199;DHT22;10757;51.038;3.712;2022-10-14T00:45:47;15.90;99.90
21199;DHT22;10757;51.038;3.712;2022-10-14T00:48:13;15.90;99.90
21199;DHT22;10757;51.038;3.712;2022-10-14T00:50:42;15.80;99.90
21199;DHT22;10757;51.038;3.712;2022-10-14T00:53:09;15.80;99.90
21199;DHT22;10757;51.038;3.712;2022-10-14T00:55:37;15.80;99.90
21199;DHT22;10757;51.038;3.712;2022-10-14T00:58:04;15.90;99.90
21199;DHT22;10757;51.038;3.712;2022-10-14T01:00:31;15.80;99.90
21199;DHT22;10757;51.038;3.712;2022-10-14T01:02:56;15.60;99.90
21199;DHT22;10757;51.038;3.712;2022-10-14T01:05:25;15.80;99.90
21199;DHT22;10757;51.038;3.712;2022-10-14T01:10:55;15.90;99.90
21199;DHT22;10757;51.038;3.712;2022-10-14T01:13:33;15.70;99.90
21199;DHT22;10757;51.038;3.712;2022-10-14T01:16:14;15.80;99.90
21199;DHT22;10757;51.038;3.712;2022-10-14T01:21:51;15.80;99.90
21199;DHT22;10757;51.038;3.712;2022-10-14T01:24:58;15.80;99.90
21199;DHT22;10757;51.038;3.712;2022-10-14T01:30:16;15.80;99.90
21199;DHT22;10757;51.038;3.712;2022-10-14T01:33:14;15.80;99.90
21199;DHT22;10757;51.038;3.712;2022-10-14T01:41:34;15.90;99.90
21199;DHT22;10757;51.038;3.712;2022-10-14T01:44:11;15.90;99.90
21199;DHT22;10757;51.038;3.712;2022-10-14T01:46:39;15.90;99.90
21199;DHT22;10757;51.038;3.712;2022-10-14T01:49:10;15.90;99.90
21199;DHT22;10757;51.038;3.712;2022-10-14T01:51:50;15.90;99.90
21199;DHT22;10757;51.038;3.712;2022-10-14T01:54:26;16.00;99.90
21199;DHT22;10757;51.038;3.712;2022-10-14T01:56:57;16.00;99.90
21199;DHT22;10757;51.038;3.712;2022-10-14T01:59:25;16.00;99.90
21199;DHT22;10757;51.038;3.712;2022-10-14T02:01:51;15.90;99.90
21199;DHT22;10757;51.038;3.712;2022-10-14T02:04:21;15.90;99.90
21199;DHT22;10757;51.038;3.712;2022-10-14T02:07:03;16.00;99.90
21199;DHT22;10757;51.038;3.712;2022-10-14T02:14:49;15.90;99.90
21199;DHT22;10757;51.038;3.712;2022-10-14T02:17:27;16.00;99.90
21199;DHT22;10757;51.038;3.712;2022-10-14T02:22:47;15.80;99.90
21199;DHT22;10757;51.038;3.712;2022-10-14T02:25:18;15.60;99.90
21199;DHT22;10757;51.038;3.712;2022-10-14T02:27:47;15.60;99.90
21199;DHT22;10757;51.038;3.712;2022-10-14T02:30:14;15.60;99.90
21199;DHT22;10757;51.038;3.712;2022-10-14T02:32:40;15.70;99.90
21199;DHT22;10757;51.038;3.712;2022-10-14T02:35:09;15.60;99.90
21199;DHT22;10757;51.038;3.712;2022-10-14T02:37:36;15.80;99.90
21199;DHT22;10757;51.038;3.712;2022-10-14T02:40:27;15.80;99.90
21199;DHT22;10757;51.038;3.712;2022-10-14T02:43:03;15.70;99.90
21199;DHT22;10757;51.038;3.712;2022-10-14T02:45:28;15.70;99.90
21199;DHT22;10757;51.038;3.712;2022-10-14T02:47:54;15.60;99.90
21199;DHT22;10757;51.038;3.712;2022-10-14T02:50:20;15.60;99.90
21199;DHT22;10757;51.038;3.712;2022-10-14T02:52:46;15.60;99.90
21199;DHT22;10757;51.038;3.712;2022-10-14T02:55:11;15.70;99.90
21199;DHT22;10757;51.038;3.712;2022-10-14T02:57:37;15.90;99.90
21199;DHT22;10757;51.038;3.712;2022-10-14T03:00:06;15.90;99.90
21199;DHT22;10757;51.038;3.712;2022-10-14T03:02:32;15.90;99.90
21199;DHT22;10757;51.038;3.712;2022-10-14T03:04:58;15.70;99.90
21199;DHT22;10757;51.038;3.712;2022-10-14T03:07:24;15.70;99.90
21199;DHT22;10757;51.038;3.712;2022-10-14T03:09:50;15.70;99.90
21199;DHT22;10757;51.038;3.712;2022-10-14T03:12:16;15.80;99.90
21199;DHT22;10757;51.038;3.712;2022-10-14T03:14:41;15.80;99.90
21199;DHT22;10757;51.038;3.712;2022-10-14T03:17:07;15.80;99.90
21199;DHT22;10757;51.038;3.712;2022-10-14T03:19:33;15.70;99.90
21199;DHT22;10757;51.038;3.712;2022-10-14T03:21:59;15.60;99.90
21199;DHT22;10757;51.038;3.712;2022-10-14T03:24:25;15.80;99.90
21199;DHT22;10757;51.038;3.712;2022-10-14T03:26:50;15.90;99.90
21199;DHT22;10757;51.038;3.712;2022-10-14T03:29:16;16.00;99.90
21199;DHT22;10757;51.038;3.712;2022-10-14T03:31:43;16.00;99.90
21199;DHT22;10757;51.038;3.712;2022-10-14T03:34:09;16.00;99.90
21199;DHT22;10757;51.038;3.712;2022-10-14T03:36:34;15.90;99.90
21199;DHT22;10757;51.038;3.712;2022-10-14T03:39:00;15.80;99.90
21199;DHT22;10757;51.038;3.712;2022-10-14T03:41:26;15.70;99.90
21199;DHT22;10757;51.038;3.712;2022-10-14T03:43:51;15.90;99.90
21199;DHT22;10757;51.038;3.712;2022-10-14T03:46:17;16.00;99.90
21199;DHT22;10757;51.038;3.712;2022-10-14T03:48:43;15.90;99.90
21199;DHT22;10757;51.038;3.712;2022-10-14T03:51:08;16.00;99.90
21199;DHT22;10757;51.038;3.712;2022-10-14T03:53:34;15.90;99.90
21199;DHT22;10757;51.038;3.712;2022-10-14T03:56:00;16.00;99.90
21199;DHT22;10757;51.038;3.712;2022-10-14T03:58:25;16.00;99.90
21199;DHT22;10757;51.038;3.712;2022-10-14T04:00:51;16.00;99.90
21199;DHT22;10757;51.038;3.712;2022-10-14T04:03:16;16.00;99.90
21199;DHT22;10757;51.038;3.712;2022-10-14T04:05:43;16.10;99.90
21199;DHT22;10757;51.038;3.712;2022-10-14T04:08:09;15.90;99.90
21199;DHT22;10757;51.038;3.712;2022-10-14T04:10:34;15.80;99.90
21199;DHT22;10757;51.038;3.712;2022-10-14T04:13:00;15.90;99.90
21199;DHT22;10757;51.038;3.712;2022-10-14T04:15:26;15.90;99.90
21199;DHT22;10757;51.038;3.712;2022-10-14T04:17:52;16.00;99.90
21199;DHT22;10757;51.038;3.712;2022-10-14T04:20:18;15.90;99.90
21199;DHT22;10757;51.038;3.712;2022-10-14T04:22:44;15.70;99.90
21199;DHT22;10757;51.038;3.712;2022-10-14T04:25:09;15.70;99.90
21199;DHT22;10757;51.038;3.712;2022-10-14T04:27:35;15.70;99.90
21199;DHT22;10757;51.038;3.712;2022-10-14T04:30:02;15.60;99.90
21199;DHT22;10757;51.038;3.712;2022-10-14T04:32:28;15.80;99.90
21199;DHT22;10757;51.038;3.712;2022-10-14T04:34:54;15.80;99.90
21199;DHT22;10757;51.038;3.712;2022-10-14T04:37:20;15.90;99.90
21199;DHT22;10757;51.038;3.712;2022-10-14T04:39:46;15.90;99.90
21199;DHT22;10757;51.038;3.712;2022-10-14T04:42:12;15.90;99.90
21199;DHT22;10757;51.038;3.712;2022-10-14T04:44:37;15.80;99.90
21199;DHT22;10757;51.038;3.712;2022-10-14T04:47:03;15.90;99.90
21199;DHT22;10757;51.038;3.712;2022-10-14T04:49:29;15.80;99.90
21199;DHT22;10757;51.038;3.712;2022-10-14T04:51:55;16.00;99.90
21199;DHT22;10757;51.038;3.712;2022-10-14T04:54:22;15.90;99.90
21199;DHT22;10757;51.038;3.712;2022-10-14T04:56:47;15.90;99.90
21199;DHT22;10757;51.038;3.712;2022-10-14T04:59:13;15.80;99.90
21199;DHT22;10757;51.038;3.712;2022-10-14T05:01:39;15.90;99.90
21199;DHT22;10757;51.038;3.712;2022-10-14T05:04:04;15.90;99.90
21199;DHT22;10757;51.038;3.712;2022-10-14T05:06:31;15.90;99.90
21199;DHT22;10757;51.038;3.712;2022-10-14T05:08:57;15.90;99.90
21199;DHT22;10757;51.038;3.712;2022-10-14T05:11:22;15.90;99.90
21199;DHT22;10757;51.038;3.712;2022-10-14T05:13:48;15.90;99.90
21199;DHT22;10757;51.038;3.712;2022-10-14T05:16:14;15.90;99.90
21199;DHT22;10757;51.038;3.712;2022-10-14T05:18:40;15.90;99.90
21199;DHT22;10757;51.038;3.712;2022-10-14T05:21:05;15.90;99.90
21199;DHT22;10757;51.038;3.712;2022-10-14T05:23:31;15.90;99.90
21199;DHT22;10757;51.038;3.712;2022-10-14T05:25:57;15.80;99.90
21199;DHT22;10757;51.038;3.712;2022-10-14T05:28:22;15.80;99.90
21199;DHT22;10757;51.038;3.712;2022-10-14T05:30:48;15.80;99.90
21199;DHT22;10757;51.038;3.712;2022-10-14T05:33:15;15.80;99.90
21199;DHT22;10757;51.038;3.712;2022-10-14T05:35:42;15.90;99.90
21199;DHT22;10757;51.038;3.712;2022-10-14T05:38:07;15.80;99.90
21199;DHT22;10757;51.038;3.712;2022-10-14T05:40:33;15.80;99.90
21199;DHT22;10757;51.038;3.712;2022-10-14T05:42:58;15.80;99.90
21199;DHT22;10757;51.038;3.712;2022-10-14T05:45:24;15.80;99.90
21199;DHT22;10757;51.038;3.712;2022-10-14T05:47:51;15.80;99.90
21199;DHT22;10757;51.038;3.712;2022-10-14T05:50:17;15.80;99.90
21199;DHT22;10757;51.038;3.712;2022-10-14T05:52:43;15.80;99.90
21199;DHT22;10757;51.038;3.712;2022-10-14T05:55:09;15.80;99.90
21199;DHT22;10757;51.038;3.712;2022-10-14T05:57:35;15.80;99.90
21199;DHT22;10757;51.038;3.712;2022-10-14T06:00:01;15.70;99.90
21199;DHT22;10757;51.038;3.712;2022-10-14T06:02:26;15.80;99.90
21199;DHT22;10757;51.038;3.712;2022-10-14T06:04:52;16.00;99.90
21199;DHT22;10757;51.038;3.712;2022-10-14T06:07:18;16.00;99.90
21199;DHT22;10757;51.038;3.712;2022-10-14T06:09:46;15.90;99.90
21199;DHT22;10757;51.038;3.712;2022-10-14T06:12:12;15.80;99.90
21199;DHT22;10757;51.038;3.712;2022-10-14T06:14:38;15.80;99.90
21199;DHT22;10757;51.038;3.712;2022-10-14T06:17:05;15.80;99.90
21199;DHT22;10757;51.038;3.712;2022-10-14T06:19:31;15.80;99.90
21199;DHT22;10757;51.038;3.712;2022-10-14T06:21:57;15.80;99.90
21199;DHT22;10757;51.038;3.712;2022-10-14T06:24:23;15.80;99.90
21199;DHT22;10757;51.038;3.712;2022-10-14T06:26:48;15.80;99.90
21199;DHT22;10757;51.038;3.712;2022-10-14T06:29:15;15.90;99.90
21199;DHT22;10757;51.038;3.712;2022-10-14T06:31:41;15.80;99.90
21199;DHT22;10757;51.038;3.712;2022-10-14T06:34:07;15.80;99.90
21199;DHT22;10757;51.038;3.712;2022-10-14T06:36:33;15.80;99.90
21199;DHT22;10757;51.038;3.712;2022-10-14T06:38:59;15.70;99.90
21199;DHT22;10757;51.038;3.712;2022-10-14T06:41:24;15.80;99.90
21199;DHT22;10757;51.038;3.712;2022-10-14T06:43:51;15.80;99.90
21199;DHT22;10757;51.038;3.712;2022-10-14T06:46:19;15.80;99.90
21199;DHT22;10757;51.038;3.712;2022-10-14T06:48:50;15.70;99.90
21199;DHT22;10757;51.038;3.712;2022-10-14T06:51:15;15.80;99.90
21199;DHT22;10757;51.038;3.712;2022-10-14T06:53:42;15.80;99.90
21199;DHT22;10757;51.038;3.712;2022-10-14T06:56:08;15.90;99.90
21199;DHT22;10757;51.038;3.712;2022-10-14T06:58:35;15.90;99.90
21199;DHT22;10757;51.038;3.712;2022-10-14T07:01:05;15.90;99.90
21199;DHT22;10757;51.038;3.712;2022-10-14T07:03:36;15.90;99.90
21199;DHT22;10757;51.038;3.712;2022-10-14T07:06:04;15.90;99.90
21199;DHT22;10757;51.038;3.712;2022-10-14T07:08:31;16.00;99.90
21199;DHT22;10757;51.038;3.712;2022-10-14T07:10:56;15.90;99.90
21199;DHT22;10757;51.038;3.712;2022-10-14T07:13:22;16.00;99.90
21199;DHT22;10757;51.038;3.712;2022-10-14T07:15:48;15.90;99.90
21199;DHT22;10757;51.038;3.712;2022-10-14T07:18:17;15.90;99.90
21199;DHT22;10757;51.038;3.712;2022-10-14T07:20:43;15.90;99.90
21199;DHT22;10757;51.038;3.712;2022-10-14T07:23:10;15.90;99.90
21199;DHT22;10757;51.038;3.712;2022-10-14T07:25:36;15.90;99.90
21199;DHT22;10757;51.038;3.712;2022-10-14T07:28:02;15.80;99.90
21199;DHT22;10757;51.038;3.712;2022-10-14T07:30:28;15.80;99.90
21199;DHT22;10757;51.038;3.712;2022-10-14T07:32:53;15.90;99.90
21199;DHT22;10757;51.038;3.712;2022-10-14T07:35:19;15.90;99.90
21199;DHT22;10757;51.038;3.712;2022-10-14T07:37:45;15.90;99.90
21199;DHT22;10757;51.038;3.712;2022-10-14T07:40:12;15.90;99.90
21199;DHT22;10757;51.038;3.712;2022-10-14T07:42:38;15.80;99.90
21199;DHT22;10757;51.038;3.712;2022-10-14T07:45:05;15.90;99.90
21199;DHT22;10757;51.038;3.712;2022-10-14T07:47:32;15.90;99.90
21199;DHT22;10757;51.038;3.712;2022-10-14T07:49:59;16.00;99.90
21199;DHT22;10757;51.038;3.712;2022-10-14T07:52:26;16.00;99.90
21199;DHT22;10757;51.038;3.712;2022-10-14T07:54:52;16.00;99.90
21199;DHT22;10757;51.038;3.712;2022-10-14T07:57:18;16.10;99.90
21199;DHT22;10757;51.038;3.712;2022-10-14T07:59:43;16.00;99.90
21199;DHT22;10757;51.038;3.712;2022-10-14T08:02:11;16.00;99.90
21199;DHT22;10757;51.038;3.712;2022-10-14T08:04:37;16.00;99.90
21199;DHT22;10757;51.038;3.712;2022-10-14T08:07:02;16.00;99.90
21199;DHT22;10757;51.038;3.712;2022-10-14T08:09:30;16.20;99.90
21199;DHT22;10757;51.038;3.712;2022-10-14T08:11:55;16.20;99.90
21199;DHT22;10757;51.038;3.712;2022-10-14T08:14:22;16.20;99.90
21199;DHT22;10757;51.038;3.712;2022-10-14T08:16:48;16.30;99.90
21199;DHT22;10757;51.038;3.712;2022-10-14T08:19:14;16.30;99.90
21199;DHT22;10757;51.038;3.712;2022-10-14T08:21:41;16.30;99.90
21199;DHT22;10757;51.038;3.712;2022-10-14T08:24:07;16.40;99.90
21199;DHT22;10757;51.038;3.712;2022-10-14T08:26:39;16.40;99.90
21199;DHT22;10757;51.038;3.712;2022-10-14T08:29:12;16.30;99.90
21199;DHT22;10757;51.038;3.712;2022-10-14T08:31:39;16.40;99.90
21199;DHT22;10757;51.038;3.712;2022-10-14T08:34:04;16.40;99.90
21199;DHT22;10757;51.038;3.712;2022-10-14T08:36:30;16.30;99.90
21199;DHT22;10757;51.038;3.712;2022-10-14T08:38:56;16.20;99.90
21199;DHT22;10757;51.038;3.712;2022-10-14T08:41:29;16.20;99.90
21199;DHT22;10757;51.038;3.712;2022-10-14T08:47:01;16.30;99.90
21199;DHT22;10757;51.038;3.712;2022-10-14T08:55:01;16.50;99.90
21199;DHT22;10757;51.038;3.712;2022-10-14T08:57:36;16.50;99.90
21199;DHT22;10757;51.038;3.712;2022-10-14T09:00:08;16.50;99.90
21199;DHT22;10757;51.038;3.712;2022-10-14T09:02:37;16.50;99.90
21199;DHT22;10757;51.038;3.712;2022-10-14T09:05:13;16.50;99.90
21199;DHT22;10757;51.038;3.712;2022-10-14T09:07:41;16.50;99.90
21199;DHT22;10757;51.038;3.712;2022-10-14T09:10:12;16.50;99.90
21199;DHT22;10757;51.038;3.712;2022-10-14T09:12:39;16.60;99.90
21199;DHT22;10757;51.038;3.712;2022-10-14T09:15:11;16.50;99.90
21199;DHT22;10757;51.038;3.712;2022-10-14T09:18:04;16.70;99.90
21199;DHT22;10757;51.038;3.712;2022-10-14T09:20:30;16.80;99.90
21199;DHT22;10757;51.038;3.712;2022-10-14T09:23:16;16.80;99.90
21199;DHT22;10757;51.038;3.712;2022-10-14T09:25:53;16.90;99.90
21199;DHT22;10757;51.038;3.712;2022-10-14T09:28:21;17.10;99.90
21199;DHT22;10757;51.038;3.712;2022-10-14T09:30:49;17.30;99.90
21199;DHT22;10757;51.038;3.712;2022-10-14T09:33:18;17.40;99.90
21199;DHT22;10757;51.038;3.712;2022-10-14T09:35:45;17.50;99.90
21199;DHT22;10757;51.038;3.712;2022-10-14T09:38:12;17.50;99.90
21199;DHT22;10757;51.038;3.712;2022-10-14T09:40:46;17.70;99.90
21199;DHT22;10757;51.038;3.712;2022-10-14T09:43:19;17.60;99.90
21199;DHT22;10757;51.038;3.712;2022-10-14T09:46:01;17.60;99.90
21199;DHT22;10757;51.038;3.712;2022-10-14T09:48:37;17.50;99.90
21199;DHT22;10757;51.038;3.712;2022-10-14T09:51:20;17.60;99.90
21199;DHT22;10757;51.038;3.712;2022-10-14T09:53:52;17.80;99.90
21199;DHT22;10757;51.038;3.712;2022-10-14T09:56:33;17.90;99.90
21199;DHT22;10757;51.038;3.712;2022-10-14T09:59:00;17.80;99.90
21199;DHT22;10757;51.038;3.712;2022-10-14T10:01:30;17.70;99.90
21199;DHT22;10757;51.038;3.712;2022-10-14T10:07:00;17.60;99.90
21199;DHT22;10757;51.038;3.712;2022-10-14T10:09:27;17.60;99.90
21199;DHT22;10757;51.038;3.712;2022-10-14T10:11:53;17.90;99.90
21199;DHT22;10757;51.038;3.712;2022-10-14T10:14:32;17.90;99.90
21199;DHT22;10757;51.038;3.712;2022-10-14T10:19:38;17.90;99.90
21199;DHT22;10757;51.038;3.712;2022-10-14T10:24:43;17.80;99.90
21199;DHT22;10757;51.038;3.712;2022-10-14T10:27:25;17.80;99.90
21199;DHT22;10757;51.038;3.712;2022-10-14T10:29:51;18.10;99.90
21199;DHT22;10757;51.038;3.712;2022-10-14T10:32:29;18.00;99.90
21199;DHT22;10757;51.038;3.712;2022-10-14T10:35:09;18.10;99.90
21199;DHT22;10757;51.038;3.712;2022-10-14T10:48:49;18.20;99.90
21199;DHT22;10757;51.038;3.712;2022-10-14T11:00:07;19.00;99.90
21199;DHT22;10757;51.038;3.712;2022-10-14T11:02:58;19.60;99.90
21199;DHT22;10757;51.038;3.712;2022-10-14T11:08:27;20.30;99.90
21199;DHT22;10757;51.038;3.712;2022-10-14T11:17:46;21.00;99.90
21199;DHT22;10757;51.038;3.712;2022-10-14T11:26:18;20.90;99.90
21199;DHT22;10757;51.038;3.712;2022-10-14T11:37:08;20.40;99.90
21199;DHT22;10757;51.038;3.712;2022-10-14T11:43:03;20.20;99.90
21199;DHT22;10757;51.038;3.712;2022-10-14T11:46:00;20.20;99.90
21199;DHT22;10757;51.038;3.712;2022-10-14T11:48:36;20.40;99.90
21199;DHT22;10757;51.038;3.712;2022-10-14T11:59:28;20.90;99.90
21199;DHT22;10757;51.038;3.712;2022-10-14T12:02:30;20.70;99.90
21199;DHT22;10757;51.038;3.712;2022-10-14T12:05:03;20.70;99.90
21199;DHT22;10757;51.038;3.712;2022-10-14T12:07:36;20.50;99.90
21199;DHT22;10757;51.038;3.712;2022-10-14T12:10:12;20.50;99.90
21199;DHT22;10757;51.038;3.712;2022-10-14T12:12:42;20.50;99.90
21199;DHT22;10757;51.038;3.712;2022-10-14T12:15:15;20.10;99.90
21199;DHT22;10757;51.038;3.712;2022-10-14T12:20:21;20.30;99.90
21199;DHT22;10757;51.038;3.712;2022-10-14T12:22:48;20.30;99.90
21199;DHT22;10757;51.038;3.712;2022-10-14T12:25:16;20.20;99.90
21199;DHT22;10757;51.038;3.712;2022-10-14T12:27:44;20.20;99.90
21199;DHT22;10757;51.038;3.712;2022-10-14T12:30:32;20.10;99.90
21199;DHT22;10757;51.038;3.712;2022-10-14T12:33:01;20.10;99.90
21199;DHT22;10757;51.038;3.712;2022-10-14T12:36:00;20.10;99.90
21199;DHT22;10757;51.038;3.712;2022-10-14T12:38:28;20.00;99.90
21199;DHT22;10757;51.038;3.712;2022-10-14T12:40:57;20.00;99.90
21199;DHT22;10757;51.038;3.712;2022-10-14T12:43:40;19.80;99.90
21199;DHT22;10757;51.038;3.712;2022-10-14T12:46:16;19.90;99.90
21199;DHT22;10757;51.038;3.712;2022-10-14T12:48:48;20.10;99.90
21199;DHT22;10757;51.038;3.712;2022-10-14T12:51:18;20.10;99.90
21199;DHT22;10757;51.038;3.712;2022-10-14T12:54:06;20.10;99.90
21199;DHT22;10757;51.038;3.712;2022-10-14T12:56:40;19.90;99.90
21199;DHT22;10757;51.038;3.712;2022-10-14T12:59:23;19.90;99.90
21199;DHT22;10757;51.038;3.712;2022-10-14T13:02:17;20.00;99.90
21199;DHT22;10757;51.038;3.712;2022-10-14T13:04:48;20.20;99.90
21199;DHT22;10757;51.038;3.712;2022-10-14T13:10:26;20.30;99.90
21199;DHT22;10757;51.038;3.712;2022-10-14T13:24:28;20.40;99.90
21199;DHT22;10757;51.038;3.712;2022-10-14T13:27:01;20.30;99.90
21199;DHT22;10757;51.038;3.712;2022-10-14T13:35:55;20.00;99.90
21199;DHT22;10757;51.038;3.712;2022-10-14T13:38:19;19.90;99.90
21199;DHT22;10757;51.038;3.712;2022-10-14T13:40:51;19.80;99.90
21199;DHT22;10757;51.038;3.712;2022-10-14T13:43:39;19.90;99.90
21199;DHT22;10757;51.038;3.712;2022-10-14T13:46:34;19.90;99.90
21199;DHT22;10757;51.038;3.712;2022-10-14T13:48:59;19.70;99.90
21199;DHT22;10757;51.038;3.712;2022-10-14T13:51:54;19.70;99.90
21199;DHT22;10757;51.038;3.712;2022-10-14T13:54:22;19.90;99.90
21199;DHT22;10757;51.038;3.712;2022-10-14T13:57:11;20.00;99.90
21199;DHT22;10757;51.038;3.712;2022-10-14T13:59:39;19.90;99.90
21199;DHT22;10757;51.038;3.712;2022-10-14T14:02:12;19.80;99.90
21199;DHT22;10757;51.038;3.712;2022-10-14T14:04:40;19.80;99.90
21199;DHT22;10757;51.038;3.712;2022-10-14T14:07:14;19.90;99.90
21199;DHT22;10757;51.038;3.712;2022-10-14T14:09:50;19.90;99.90
21199;DHT22;10757;51.038;3.712;2022-10-14T14:12:18;20.00;99.90
21199;DHT22;10757;51.038;3.712;2022-10-14T14:14:52;20.00;99.90
21199;DHT22;10757;51.038;3.712;2022-10-14T14:17:21;19.90;99.90
21199;DHT22;10757;51.038;3.712;2022-10-14T14:19:48;19.80;99.90
21199;DHT22;10757;51.038;3.712;2022-10-14T14:22:20;19.60;99.90
21199;DHT22;10757;51.038;3.712;2022-10-14T14:24:49;19.60;99.90
21199;DHT22;10757;51.038;3.712;2022-10-14T14:27:19;19.70;99.90
21199;DHT22;10757;51.038;3.712;2022-10-14T14:29:49;19.60;99.90
21199;DHT22;10757;51.038;3.712;2022-10-14T14:32:29;19.60;99.90
21199;DHT22;10757;51.038;3.712;2022-10-14T14:34:55;19.40;99.90
21199;DHT22;10757;51.038;3.712;2022-10-14T14:37:29;19.30;99.90
21199;DHT22;10757;51.038;3.712;2022-10-14T14:39:56;19.20;99.90
21199;DHT22;10757;51.038;3.712;2022-10-14T14:42:25;19.30;99.90
21199;DHT22;10757;51.038;3.712;2022-10-14T14:44:54;19.30;99.90
21199;DHT22;10757;51.038;3.712;2022-10-14T14:47:33;19.30;99.90
21199;DHT22;10757;51.038;3.712;2022-10-14T14:50:05;19.20;99.90
21199;DHT22;10757;51.038;3.712;2022-10-14T14:52:32;19.10;99.90
21199;DHT22;10757;51.038;3.712;2022-10-14T14:55:02;19.00;99.90
21199;DHT22;10757;51.038;3.712;2022-10-14T14:57:33;19.30;99.90
21199;DHT22;10757;51.038;3.712;2022-10-14T15:00:26;19.20;99.90
21199;DHT22;10757;51.038;3.712;2022-10-14T15:02:59;19.10;99.90
21199;DHT22;10757;51.038;3.712;2022-10-14T15:05:26;19.30;99.90
21199;DHT22;10757;51.038;3.712;2022-10-14T15:08:02;19.20;99.90
21199;DHT22;10757;51.038;3.712;2022-10-14T15:10:46;19.20;99.90
21199;DHT22;10757;51.038;3.712;2022-10-14T15:13:27;18.90;99.90
21199;DHT22;10757;51.038;3.712;2022-10-14T15:15:56;18.70;99.90
21199;DHT22;10757;51.038;3.712;2022-10-14T15:18:27;18.70;99.90
21199;DHT22;10757;51.038;3.712;2022-10-14T15:21:17;19.00;99.90
21199;DHT22;10757;51.038;3.712;2022-10-14T15:26:36;18.90;99.90
21199;DHT22;10757;51.038;3.712;2022-10-14T15:31:40;19.10;99.90
21199;DHT22;10757;51.038;3.712;2022-10-14T15:34:18;19.00;99.90
21199;DHT22;10757;51.038;3.712;2022-10-14T15:36:48;18.80;99.90
21199;DHT22;10757;51.038;3.712;2022-10-14T15:39:32;18.80;99.90
21199;DHT22;10757;51.038;3.712;2022-10-14T15:42:17;18.70;99.90
21199;DHT22;10757;51.038;3.712;2022-10-14T15:47:22;18.40;99.90
21199;DHT22;10757;51.038;3.712;2022-10-14T15:49:58;18.50;99.90
21199;DHT22;10757;51.038;3.712;2022-10-14T15:53:03;18.40;99.90
21199;DHT22;10757;51.038;3.712;2022-10-14T15:55:32;18.20;99.90
21199;DHT22;10757;51.038;3.712;2022-10-14T15:58:06;18.20;99.90
21199;DHT22;10757;51.038;3.712;2022-10-14T16:00:32;18.10;99.90
21199;DHT22;10757;51.038;3.712;2022-10-14T16:02:58;18.10;99.90
21199;DHT22;10757;51.038;3.712;2022-10-14T16:05:26;18.00;99.90
21199;DHT22;10757;51.038;3.712;2022-10-14T16:07:56;18.00;99.90
21199;DHT22;10757;51.038;3.712;2022-10-14T16:10:22;18.00;99.90
21199;DHT22;10757;51.038;3.712;2022-10-14T16:12:49;17.90;99.90
21199;DHT22;10757;51.038;3.712;2022-10-14T16:17:52;18.00;99.90
21199;DHT22;10757;51.038;3.712;2022-10-14T16:20:19;17.90;99.90
21199;DHT22;10757;51.038;3.712;2022-10-14T16:22:45;17.90;99.90
21199;DHT22;10757;51.038;3.712;2022-10-14T16:25:24;17.90;99.90
21199;DHT22;10757;51.038;3.712;2022-10-14T16:27:54;17.80;99.90
21199;DHT22;10757;51.038;3.712;2022-10-14T16:30:20;17.70;99.90
21199;DHT22;10757;51.038;3.712;2022-10-14T16:32:45;17.60;99.90
21199;DHT22;10757;51.038;3.712;2022-10-14T16:35:11;17.60;99.90
21199;DHT22;10757;51.038;3.712;2022-10-14T16:37:37;17.50;99.90
21199;DHT22;10757;51.038;3.712;2022-10-14T16:40:03;17.50;99.90
21199;DHT22;10757;51.038;3.712;2022-10-14T16:42:29;17.30;99.90
21199;DHT22;10757;51.038;3.712;2022-10-14T16:44:55;17.30;99.90
21199;DHT22;10757;51.038;3.712;2022-10-14T16:47:21;17.30;99.90
21199;DHT22;10757;51.038;3.712;2022-10-14T16:49:49;17.30;99.90
21199;DHT22;10757;51.038;3.712;2022-10-14T16:52:17;17.30;99.90
21199;DHT22;10757;51.038;3.712;2022-10-14T16:54:43;17.20;99.90
21199;DHT22;10757;51.038;3.712;2022-10-14T16:57:09;17.20;99.90
21199;DHT22;10757;51.038;3.712;2022-10-14T16:59:35;17.20;99.90
21199;DHT22;10757;51.038;3.712;2022-10-14T17:02:03;17.10;99.90
21199;DHT22;10757;51.038;3.712;2022-10-14T17:04:29;17.00;99.90
21199;DHT22;10757;51.038;3.712;2022-10-14T17:06:55;17.10;99.90
21199;DHT22;10757;51.038;3.712;2022-10-14T17:09:36;17.10;99.90
21199;DHT22;10757;51.038;3.712;2022-10-14T17:12:04;17.10;99.90
21199;DHT22;10757;51.038;3.712;2022-10-14T17:14:30;17.10;99.90
21199;DHT22;10757;51.038;3.712;2022-10-14T17:16:59;17.10;99.90
21199;DHT22;10757;51.038;3.712;2022-10-14T17:19:26;17.10;99.90
21199;DHT22;10757;51.038;3.712;2022-10-14T17:21:52;17.10;99.90
21199;DHT22;10757;51.038;3.712;2022-10-14T17:24:18;17.00;99.90
21199;DHT22;10757;51.038;3.712;2022-10-14T17:26:44;17.00;99.90
21199;DHT22;10757;51.038;3.712;2022-10-14T17:29:10;17.10;99.90
21199;DHT22;10757;51.038;3.712;2022-10-14T17:31:35;17.10;99.90
21199;DHT22;10757;51.038;3.712;2022-10-14T17:34:03;17.10;99.90
21199;DHT22;10757;51.038;3.712;2022-10-14T17:36:29;17.00;99.90
21199;DHT22;10757;51.038;3.712;2022-10-14T17:38:56;17.00;99.90
21199;DHT22;10757;51.038;3.712;2022-10-14T17:41:24;17.00;99.90
21199;DHT22;10757;51.038;3.712;2022-10-14T17:43:52;16.90;99.90
21199;DHT22;10757;51.038;3.712;2022-10-14T17:46:19;16.80;99.90
21199;DHT22;10757;51.038;3.712;2022-10-14T17:48:49;16.80;99.90
21199;DHT22;10757;51.038;3.712;2022-10-14T17:51:15;16.70;99.90
21199;DHT22;10757;51.038;3.712;2022-10-14T17:53:41;16.80;99.90
21199;DHT22;10757;51.038;3.712;2022-10-14T17:56:11;16.90;99.90